sensor_id;sensor_type;location;lat;lon;timestamp;P1;durP1;ratioP1;P2;durP2;ratioP2
55913;SDS011;58179;48.776;9.124;2023-06-22T00:00:49;37.97;;;20.83;;
55913;SDS011;58179;48.776;9.124;2023-06-22T00:03:15;34.40;;;20.45;;
55913;SDS011;58179;48.776;9.124;2023-06-22T00:05:44;37.30;;;19.80;;
55913;SDS011;58179;48.776;9.124;2023-06-22T00:08:10;30.23;;;18.23;;
55913;SDS011;58179;48.776;9.124;2023-06-22T00:10:38;40.88;;;20.80;;
55913;SDS011;58179;48.776;9.124;2023-06-22T00:13:05;41.78;;;21.52;;
55913;SDS011;58179;48.776;9.124;2023-06-22T00:15:32;44.00;;;22.10;;
55913;SDS011;58179;48.776;9.124;2023-06-22T00:17:58;41.65;;;21.02;;
55913;SDS011;58179;48.776;9.124;2023-06-22T00:20:26;39.38;;;20.85;;
55913;SDS011;58179;48.776;9.124;2023-06-22T00:22:53;42.47;;;22.02;;
55913;SDS011;58179;48.776;9.124;2023-06-22T00:25:19;34.08;;;19.27;;
55913;SDS011;58179;48.776;9.124;2023-06-22T00:27:47;29.08;;;17.05;;
55913;SDS011;58179;48.776;9.124;2023-06-22T00:30:13;29.08;;;16.83;;
55913;SDS011;58179;48.776;9.124;2023-06-22T00:32:40;30.23;;;17.90;;
55913;SDS011;58179;48.776;9.124;2023-06-22T00:35:06;36.80;;;19.33;;
55913;SDS011;58179;48.776;9.124;2023-06-22T00:37:34;31.48;;;17.92;;
55913;SDS011;58179;48.776;9.124;2023-06-22T00:40:00;32.78;;;17.50;;
55913;SDS011;58179;48.776;9.124;2023-06-22T00:42:27;26.57;;;15.73;;
55913;SDS011;58179;48.776;9.124;2023-06-22T00:44:55;23.55;;;15.10;;
55913;SDS011;58179;48.776;9.124;2023-06-22T00:47:22;24.40;;;15.45;;
55913;SDS011;58179;48.776;9.124;2023-06-22T00:49:48;24.00;;;14.88;;
55913;SDS011;58179;48.776;9.124;2023-06-22T00:52:20;26.77;;;16.35;;
55913;SDS011;58179;48.776;9.124;2023-06-22T00:54:54;43.17;;;22.67;;
55913;SDS011;58179;48.776;9.124;2023-06-22T00:57:21;41.17;;;21.00;;
55913;SDS011;58179;48.776;9.124;2023-06-22T00:59:50;31.08;;;17.65;;
55913;SDS011;58179;48.776;9.124;2023-06-22T01:02:18;28.70;;;17.05;;
55913;SDS011;58179;48.776;9.124;2023-06-22T01:04:44;33.90;;;20.98;;
55913;SDS011;58179;48.776;9.124;2023-06-22T01:07:13;34.92;;;19.42;;
55913;SDS011;58179;48.776;9.124;2023-06-22T01:09:49;30.85;;;18.00;;
55913;SDS011;58179;48.776;9.124;2023-06-22T01:12:22;27.00;;;16.77;;
55913;SDS011;58179;48.776;9.124;2023-06-22T01:14:52;24.95;;;14.90;;
55913;SDS011;58179;48.776;9.124;2023-06-22T01:17:28;35.15;;;19.35;;
55913;SDS011;58179;48.776;9.124;2023-06-22T01:19:56;35.80;;;18.27;;
55913;SDS011;58179;48.776;9.124;2023-06-22T01:22:26;24.83;;;15.65;;
55913;SDS011;58179;48.776;9.124;2023-06-22T01:24:57;24.85;;;14.77;;
55913;SDS011;58179;48.776;9.124;2023-06-22T01:27:36;23.45;;;13.95;;
55913;SDS011;58179;48.776;9.124;2023-06-22T01:30:13;23.95;;;14.82;;
55913;SDS011;58179;48.776;9.124;2023-06-22T01:32:43;28.20;;;16.67;;
55913;SDS011;58179;48.776;9.124;2023-06-22T01:35:10;22.27;;;15.00;;
55913;SDS011;58179;48.776;9.124;2023-06-22T01:37:39;23.67;;;15.00;;
55913;SDS011;58179;48.776;9.124;2023-06-22T01:40:06;28.50;;;15.75;;
55913;SDS011;58179;48.776;9.124;2023-06-22T01:42:33;23.25;;;15.00;;
55913;SDS011;58179;48.776;9.124;2023-06-22T01:45:01;22.60;;;14.77;;
55913;SDS011;58179;48.776;9.124;2023-06-22T01:47:31;21.02;;;13.73;;
55913;SDS011;58179;48.776;9.124;2023-06-22T01:49:58;25.10;;;14.52;;
55913;SDS011;58179;48.776;9.124;2023-06-22T01:52:25;27.65;;;15.02;;
55913;SDS011;58179;48.776;9.124;2023-06-22T01:54:51;20.58;;;13.60;;
55913;SDS011;58179;48.776;9.124;2023-06-22T01:57:18;19.70;;;13.13;;
55913;SDS011;58179;48.776;9.124;2023-06-22T01:59:46;19.20;;;12.88;;
55913;SDS011;58179;48.776;9.124;2023-06-22T02:02:18;19.35;;;12.70;;
55913;SDS011;58179;48.776;9.124;2023-06-22T02:04:54;20.35;;;13.75;;
55913;SDS011;58179;48.776;9.124;2023-06-22T02:07:23;22.40;;;14.00;;
55913;SDS011;58179;48.776;9.124;2023-06-22T02:09:53;22.38;;;13.98;;
55913;SDS011;58179;48.776;9.124;2023-06-22T02:12:22;25.70;;;15.07;;
55913;SDS011;58179;48.776;9.124;2023-06-22T02:14:50;23.23;;;14.30;;
55913;SDS011;58179;48.776;9.124;2023-06-22T02:17:17;29.40;;;16.00;;
55913;SDS011;58179;48.776;9.124;2023-06-22T02:19:44;30.02;;;17.25;;
55913;SDS011;58179;48.776;9.124;2023-06-22T02:22:12;29.60;;;17.17;;
55913;SDS011;58179;48.776;9.124;2023-06-22T02:24:38;28.08;;;17.08;;
55913;SDS011;58179;48.776;9.124;2023-06-22T02:27:05;25.38;;;16.23;;
55913;SDS011;58179;48.776;9.124;2023-06-22T02:29:32;26.73;;;16.00;;
55913;SDS011;58179;48.776;9.124;2023-06-22T02:31:58;25.40;;;15.77;;
55913;SDS011;58179;48.776;9.124;2023-06-22T02:34:24;26.05;;;16.00;;
55913;SDS011;58179;48.776;9.124;2023-06-22T02:36:51;28.15;;;17.55;;
55913;SDS011;58179;48.776;9.124;2023-06-22T02:39:20;25.77;;;15.50;;
55913;SDS011;58179;48.776;9.124;2023-06-22T02:41:47;31.60;;;18.15;;
55913;SDS011;58179;48.776;9.124;2023-06-22T02:44:14;26.20;;;16.17;;
55913;SDS011;58179;48.776;9.124;2023-06-22T02:46:40;28.40;;;17.00;;
55913;SDS011;58179;48.776;9.124;2023-06-22T02:49:06;27.23;;;16.05;;
55913;SDS011;58179;48.776;9.124;2023-06-22T02:51:33;39.15;;;21.30;;
55913;SDS011;58179;48.776;9.124;2023-06-22T02:53:59;41.40;;;20.87;;
55913;SDS011;58179;48.776;9.124;2023-06-22T02:56:28;36.28;;;19.73;;
55913;SDS011;58179;48.776;9.124;2023-06-22T02:58:55;33.00;;;19.50;;
55913;SDS011;58179;48.776;9.124;2023-06-22T03:01:25;29.60;;;17.48;;
55913;SDS011;58179;48.776;9.124;2023-06-22T03:03:52;31.30;;;17.40;;
55913;SDS011;58179;48.776;9.124;2023-06-22T03:06:19;31.70;;;17.75;;
55913;SDS011;58179;48.776;9.124;2023-06-22T03:08:48;28.33;;;17.27;;
55913;SDS011;58179;48.776;9.124;2023-06-22T03:11:14;27.60;;;16.67;;
55913;SDS011;58179;48.776;9.124;2023-06-22T03:13:42;25.87;;;16.17;;
55913;SDS011;58179;48.776;9.124;2023-06-22T03:16:10;28.33;;;17.60;;
55913;SDS011;58179;48.776;9.124;2023-06-22T03:18:36;33.70;;;19.30;;
55913;SDS011;58179;48.776;9.124;2023-06-22T03:21:03;29.38;;;17.80;;
55913;SDS011;58179;48.776;9.124;2023-06-22T03:23:29;32.85;;;19.10;;
55913;SDS011;58179;48.776;9.124;2023-06-22T03:25:55;28.33;;;17.33;;
55913;SDS011;58179;48.776;9.124;2023-06-22T03:28:21;28.85;;;17.05;;
55913;SDS011;58179;48.776;9.124;2023-06-22T03:30:49;25.10;;;16.17;;
55913;SDS011;58179;48.776;9.124;2023-06-22T03:33:15;32.00;;;18.77;;
55913;SDS011;58179;48.776;9.124;2023-06-22T03:35:41;31.08;;;17.50;;
55913;SDS011;58179;48.776;9.124;2023-06-22T03:38:07;28.70;;;18.08;;
55913;SDS011;58179;48.776;9.124;2023-06-22T03:40:34;33.30;;;18.13;;
55913;SDS011;58179;48.776;9.124;2023-06-22T03:43:00;27.00;;;16.25;;
55913;SDS011;58179;48.776;9.124;2023-06-22T03:45:26;27.88;;;15.93;;
55913;SDS011;58179;48.776;9.124;2023-06-22T03:47:53;31.02;;;17.10;;
55913;SDS011;58179;48.776;9.124;2023-06-22T03:50:20;22.17;;;14.50;;
55913;SDS011;58179;48.776;9.124;2023-06-22T03:52:46;28.02;;;15.68;;
55913;SDS011;58179;48.776;9.124;2023-06-22T03:55:12;30.75;;;18.17;;
55913;SDS011;58179;48.776;9.124;2023-06-22T03:57:39;39.38;;;21.30;;
55913;SDS011;58179;48.776;9.124;2023-06-22T04:00:05;39.22;;;21.17;;
55913;SDS011;58179;48.776;9.124;2023-06-22T04:02:35;33.70;;;19.02;;
55913;SDS011;58179;48.776;9.124;2023-06-22T04:05:02;31.88;;;18.10;;
55913;SDS011;58179;48.776;9.124;2023-06-22T04:07:30;38.05;;;21.05;;
55913;SDS011;58179;48.776;9.124;2023-06-22T04:09:57;35.67;;;19.95;;
55913;SDS011;58179;48.776;9.124;2023-06-22T04:12:23;35.40;;;19.90;;
55913;SDS011;58179;48.776;9.124;2023-06-22T04:14:49;28.25;;;17.42;;
55913;SDS011;58179;48.776;9.124;2023-06-22T04:17:15;28.55;;;16.42;;
55913;SDS011;58179;48.776;9.124;2023-06-22T04:19:42;26.58;;;15.68;;
55913;SDS011;58179;48.776;9.124;2023-06-22T04:22:10;24.60;;;15.90;;
55913;SDS011;58179;48.776;9.124;2023-06-22T04:24:37;27.45;;;16.38;;
55913;SDS011;58179;48.776;9.124;2023-06-22T04:27:03;31.63;;;17.50;;
55913;SDS011;58179;48.776;9.124;2023-06-22T04:29:30;27.17;;;16.33;;
55913;SDS011;58179;48.776;9.124;2023-06-22T04:31:56;27.60;;;15.43;;
55913;SDS011;58179;48.776;9.124;2023-06-22T04:34:24;30.50;;;16.88;;
55913;SDS011;58179;48.776;9.124;2023-06-22T04:36:54;26.55;;;15.50;;
55913;SDS011;58179;48.776;9.124;2023-06-22T04:39:21;26.33;;;16.42;;
55913;SDS011;58179;48.776;9.124;2023-06-22T04:41:49;25.65;;;15.80;;
55913;SDS011;58179;48.776;9.124;2023-06-22T04:44:17;24.27;;;14.65;;
55913;SDS011;58179;48.776;9.124;2023-06-22T04:46:49;22.90;;;14.90;;
55913;SDS011;58179;48.776;9.124;2023-06-22T04:49:19;21.85;;;14.23;;
55913;SDS011;58179;48.776;9.124;2023-06-22T04:51:46;24.77;;;14.05;;
55913;SDS011;58179;48.776;9.124;2023-06-22T04:54:13;21.02;;;13.32;;
55913;SDS011;58179;48.776;9.124;2023-06-22T04:56:41;22.50;;;14.00;;
55913;SDS011;58179;48.776;9.124;2023-06-22T04:59:07;22.08;;;14.10;;
55913;SDS011;58179;48.776;9.124;2023-06-22T05:01:33;23.13;;;13.37;;
55913;SDS011;58179;48.776;9.124;2023-06-22T05:04:00;18.20;;;11.55;;
55913;SDS011;58179;48.776;9.124;2023-06-22T05:06:27;19.77;;;11.35;;
55913;SDS011;58179;48.776;9.124;2023-06-22T05:08:53;17.65;;;11.32;;
55913;SDS011;58179;48.776;9.124;2023-06-22T05:11:22;14.82;;;9.73;;
55913;SDS011;58179;48.776;9.124;2023-06-22T05:13:50;14.48;;;9.48;;
55913;SDS011;58179;48.776;9.124;2023-06-22T05:16:16;20.15;;;12.40;;
55913;SDS011;58179;48.776;9.124;2023-06-22T05:18:48;19.17;;;11.25;;
55913;SDS011;58179;48.776;9.124;2023-06-22T05:21:14;15.90;;;9.77;;
55913;SDS011;58179;48.776;9.124;2023-06-22T05:23:41;12.23;;;8.68;;
55913;SDS011;58179;48.776;9.124;2023-06-22T05:26:07;13.43;;;8.85;;
55913;SDS011;58179;48.776;9.124;2023-06-22T05:28:35;11.70;;;8.57;;
55913;SDS011;58179;48.776;9.124;2023-06-22T05:31:02;12.23;;;9.10;;
55913;SDS011;58179;48.776;9.124;2023-06-22T05:33:29;11.20;;;8.52;;
55913;SDS011;58179;48.776;9.124;2023-06-22T05:35:55;11.18;;;8.45;;
55913;SDS011;58179;48.776;9.124;2023-06-22T05:38:21;9.32;;;7.40;;
55913;SDS011;58179;48.776;9.124;2023-06-22T05:40:47;8.03;;;6.30;;
55913;SDS011;58179;48.776;9.124;2023-06-22T05:43:13;9.00;;;6.80;;
55913;SDS011;58179;48.776;9.124;2023-06-22T05:45:40;8.57;;;6.50;;
55913;SDS011;58179;48.776;9.124;2023-06-22T05:48:08;8.48;;;6.45;;
55913;SDS011;58179;48.776;9.124;2023-06-22T05:50:34;8.23;;;5.82;;
55913;SDS011;58179;48.776;9.124;2023-06-22T05:53:01;10.27;;;7.45;;
55913;SDS011;58179;48.776;9.124;2023-06-22T05:55:28;7.18;;;6.05;;
55913;SDS011;58179;48.776;9.124;2023-06-22T05:57:54;8.70;;;6.60;;
55913;SDS011;58179;48.776;9.124;2023-06-22T06:00:20;10.65;;;7.15;;
55913;SDS011;58179;48.776;9.124;2023-06-22T06:02:47;11.07;;;7.32;;
55913;SDS011;58179;48.776;9.124;2023-06-22T06:05:15;11.82;;;7.32;;
55913;SDS011;58179;48.776;9.124;2023-06-22T06:07:42;9.65;;;7.03;;
55913;SDS011;58179;48.776;9.124;2023-06-22T06:10:10;12.52;;;7.68;;
55913;SDS011;58179;48.776;9.124;2023-06-22T06:12:36;10.30;;;7.35;;
55913;SDS011;58179;48.776;9.124;2023-06-22T06:15:03;10.93;;;7.55;;
55913;SDS011;58179;48.776;9.124;2023-06-22T06:17:31;11.10;;;7.68;;
55913;SDS011;58179;48.776;9.124;2023-06-22T06:19:58;12.10;;;7.72;;
55913;SDS011;58179;48.776;9.124;2023-06-22T06:22:26;11.05;;;7.63;;
55913;SDS011;58179;48.776;9.124;2023-06-22T06:24:52;11.43;;;8.17;;
55913;SDS011;58179;48.776;9.124;2023-06-22T06:27:19;13.70;;;7.80;;
55913;SDS011;58179;48.776;9.124;2023-06-22T06:29:45;9.23;;;6.90;;
55913;SDS011;58179;48.776;9.124;2023-06-22T06:32:13;11.65;;;7.88;;
55913;SDS011;58179;48.776;9.124;2023-06-22T06:34:40;8.35;;;6.25;;
55913;SDS011;58179;48.776;9.124;2023-06-22T06:37:06;8.68;;;6.47;;
55913;SDS011;58179;48.776;9.124;2023-06-22T06:39:34;8.02;;;6.07;;
55913;SDS011;58179;48.776;9.124;2023-06-22T06:42:00;9.63;;;6.85;;
55913;SDS011;58179;48.776;9.124;2023-06-22T06:44:26;8.25;;;6.40;;
55913;SDS011;58179;48.776;9.124;2023-06-22T06:46:52;8.00;;;6.30;;
55913;SDS011;58179;48.776;9.124;2023-06-22T06:49:19;7.45;;;6.40;;
55913;SDS011;58179;48.776;9.124;2023-06-22T06:51:45;11.50;;;7.90;;
55913;SDS011;58179;48.776;9.124;2023-06-22T06:54:11;9.82;;;7.60;;
55913;SDS011;58179;48.776;9.124;2023-06-22T06:56:39;8.52;;;6.50;;
55913;SDS011;58179;48.776;9.124;2023-06-22T06:59:05;8.33;;;6.87;;
55913;SDS011;58179;48.776;9.124;2023-06-22T07:01:31;8.45;;;6.20;;
55913;SDS011;58179;48.776;9.124;2023-06-22T07:03:58;7.13;;;5.60;;
55913;SDS011;58179;48.776;9.124;2023-06-22T07:06:27;8.55;;;6.07;;
55913;SDS011;58179;48.776;9.124;2023-06-22T07:08:57;7.47;;;5.53;;
55913;SDS011;58179;48.776;9.124;2023-06-22T07:11:23;8.30;;;5.43;;
55913;SDS011;58179;48.776;9.124;2023-06-22T07:13:50;14.13;;;8.47;;
55913;SDS011;58179;48.776;9.124;2023-06-22T07:16:17;11.88;;;7.72;;
55913;SDS011;58179;48.776;9.124;2023-06-22T07:18:43;9.40;;;7.28;;
55913;SDS011;58179;48.776;9.124;2023-06-22T07:21:09;12.57;;;9.00;;
55913;SDS011;58179;48.776;9.124;2023-06-22T07:23:35;8.48;;;6.80;;
55913;SDS011;58179;48.776;9.124;2023-06-22T07:26:02;15.20;;;7.72;;
55913;SDS011;58179;48.776;9.124;2023-06-22T07:28:42;11.50;;;7.10;;
55913;SDS011;58179;48.776;9.124;2023-06-22T07:31:15;7.28;;;6.15;;
55913;SDS011;58179;48.776;9.124;2023-06-22T07:33:42;8.98;;;6.68;;
55913;SDS011;58179;48.776;9.124;2023-06-22T07:36:08;7.55;;;6.20;;
55913;SDS011;58179;48.776;9.124;2023-06-22T07:38:35;8.20;;;6.10;;
55913;SDS011;58179;48.776;9.124;2023-06-22T07:41:02;6.47;;;5.50;;
55913;SDS011;58179;48.776;9.124;2023-06-22T07:43:30;7.85;;;5.38;;
55913;SDS011;58179;48.776;9.124;2023-06-22T07:45:59;7.53;;;5.10;;
55913;SDS011;58179;48.776;9.124;2023-06-22T07:48:25;8.45;;;6.10;;
55913;SDS011;58179;48.776;9.124;2023-06-22T07:50:52;7.03;;;5.60;;
55913;SDS011;58179;48.776;9.124;2023-06-22T07:53:18;11.83;;;7.50;;
55913;SDS011;58179;48.776;9.124;2023-06-22T07:55:45;12.35;;;8.65;;
55913;SDS011;58179;48.776;9.124;2023-06-22T07:58:11;14.30;;;8.45;;
55913;SDS011;58179;48.776;9.124;2023-06-22T08:00:37;9.10;;;7.30;;
55913;SDS011;58179;48.776;9.124;2023-06-22T08:03:05;9.55;;;7.00;;
55913;SDS011;58179;48.776;9.124;2023-06-22T08:05:31;12.30;;;8.52;;
55913;SDS011;58179;48.776;9.124;2023-06-22T08:07:58;9.73;;;7.38;;
55913;SDS011;58179;48.776;9.124;2023-06-22T08:10:24;12.07;;;7.17;;
55913;SDS011;58179;48.776;9.124;2023-06-22T08:12:51;7.93;;;6.78;;
55913;SDS011;58179;48.776;9.124;2023-06-22T08:15:17;13.00;;;7.72;;
55913;SDS011;58179;48.776;9.124;2023-06-22T08:17:44;8.65;;;6.63;;
55913;SDS011;58179;48.776;9.124;2023-06-22T08:20:14;8.70;;;6.30;;
55913;SDS011;58179;48.776;9.124;2023-06-22T08:22:41;7.47;;;5.63;;
55913;SDS011;58179;48.776;9.124;2023-06-22T08:25:08;7.20;;;5.22;;
55913;SDS011;58179;48.776;9.124;2023-06-22T08:27:34;14.38;;;7.40;;
55913;SDS011;58179;48.776;9.124;2023-06-22T08:30:01;12.25;;;6.82;;
55913;SDS011;58179;48.776;9.124;2023-06-22T08:32:30;12.47;;;6.37;;
55913;SDS011;58179;48.776;9.124;2023-06-22T08:34:57;11.20;;;6.20;;
55913;SDS011;58179;48.776;9.124;2023-06-22T08:37:25;8.02;;;5.22;;
55913;SDS011;58179;48.776;9.124;2023-06-22T08:39:55;17.98;;;6.97;;
55913;SDS011;58179;48.776;9.124;2023-06-22T08:42:22;13.25;;;6.53;;
55913;SDS011;58179;48.776;9.124;2023-06-22T08:44:49;7.88;;;5.47;;
55913;SDS011;58179;48.776;9.124;2023-06-22T08:47:15;12.05;;;6.45;;
55913;SDS011;58179;48.776;9.124;2023-06-22T08:49:41;12.95;;;5.95;;
55913;SDS011;58179;48.776;9.124;2023-06-22T08:52:08;20.55;;;6.82;;
55913;SDS011;58179;48.776;9.124;2023-06-22T08:54:35;12.77;;;5.80;;
55913;SDS011;58179;48.776;9.124;2023-06-22T08:57:03;18.65;;;6.88;;
55913;SDS011;58179;48.776;9.124;2023-06-22T08:59:29;14.60;;;6.22;;
55913;SDS011;58179;48.776;9.124;2023-06-22T09:01:56;9.02;;;5.90;;
55913;SDS011;58179;48.776;9.124;2023-06-22T09:04:22;10.38;;;5.70;;
55913;SDS011;58179;48.776;9.124;2023-06-22T09:06:49;8.45;;;5.70;;
55913;SDS011;58179;48.776;9.124;2023-06-22T09:09:17;10.23;;;5.95;;
55913;SDS011;58179;48.776;9.124;2023-06-22T09:11:45;10.93;;;5.30;;
55913;SDS011;58179;48.776;9.124;2023-06-22T09:14:12;6.55;;;4.40;;
55913;SDS011;58179;48.776;9.124;2023-06-22T09:16:38;8.00;;;5.20;;
55913;SDS011;58179;48.776;9.124;2023-06-22T09:19:04;8.43;;;5.22;;
55913;SDS011;58179;48.776;9.124;2023-06-22T09:21:31;7.65;;;5.18;;
55913;SDS011;58179;48.776;9.124;2023-06-22T09:23:57;10.20;;;5.93;;
55913;SDS011;58179;48.776;9.124;2023-06-22T09:26:24;11.13;;;5.82;;
55913;SDS011;58179;48.776;9.124;2023-06-22T09:31:41;10.60;;;5.70;;
55913;SDS011;58179;48.776;9.124;2023-06-22T09:34:07;9.25;;;5.10;;
55913;SDS011;58179;48.776;9.124;2023-06-22T09:36:34;6.75;;;4.75;;
55913;SDS011;58179;48.776;9.124;2023-06-22T09:39:00;7.35;;;4.72;;
55913;SDS011;58179;48.776;9.124;2023-06-22T09:41:30;4.55;;;3.83;;
55913;SDS011;58179;48.776;9.124;2023-06-22T09:43:57;25.95;;;9.00;;
55913;SDS011;58179;48.776;9.124;2023-06-22T09:46:24;13.38;;;6.65;;
55913;SDS011;58179;48.776;9.124;2023-06-22T09:48:51;18.50;;;7.22;;
55913;SDS011;58179;48.776;9.124;2023-06-22T09:51:17;9.77;;;5.38;;
55913;SDS011;58179;48.776;9.124;2023-06-22T09:53:46;10.57;;;5.55;;
55913;SDS011;58179;48.776;9.124;2023-06-22T09:56:12;21.65;;;7.07;;
55913;SDS011;58179;48.776;9.124;2023-06-22T09:58:41;13.10;;;6.30;;
55913;SDS011;58179;48.776;9.124;2023-06-22T10:01:09;10.77;;;6.13;;
55913;SDS011;58179;48.776;9.124;2023-06-22T10:03:37;9.35;;;5.40;;
55913;SDS011;58179;48.776;9.124;2023-06-22T10:06:06;13.90;;;6.30;;
55913;SDS011;58179;48.776;9.124;2023-06-22T10:08:33;11.55;;;6.05;;
55913;SDS011;58179;48.776;9.124;2023-06-22T10:10:59;15.88;;;6.82;;
55913;SDS011;58179;48.776;9.124;2023-06-22T10:13:26;16.85;;;6.80;;
55913;SDS011;58179;48.776;9.124;2023-06-22T10:15:52;13.30;;;6.15;;
55913;SDS011;58179;48.776;9.124;2023-06-22T10:18:18;8.57;;;5.53;;
55913;SDS011;58179;48.776;9.124;2023-06-22T10:20:48;10.07;;;5.35;;
55913;SDS011;58179;48.776;9.124;2023-06-22T10:23:16;10.38;;;5.30;;
55913;SDS011;58179;48.776;9.124;2023-06-22T10:25:42;12.60;;;5.93;;
55913;SDS011;58179;48.776;9.124;2023-06-22T10:28:09;14.93;;;6.55;;
55913;SDS011;58179;48.776;9.124;2023-06-22T10:30:35;17.85;;;6.72;;
55913;SDS011;58179;48.776;9.124;2023-06-22T10:33:01;8.95;;;5.55;;
55913;SDS011;58179;48.776;9.124;2023-06-22T10:35:28;7.70;;;5.23;;
55913;SDS011;58179;48.776;9.124;2023-06-22T10:37:55;18.23;;;6.30;;
55913;SDS011;58179;48.776;9.124;2023-06-22T10:40:21;11.23;;;5.95;;
55913;SDS011;58179;48.776;9.124;2023-06-22T10:42:48;8.95;;;5.30;;
55913;SDS011;58179;48.776;9.124;2023-06-22T10:45:15;10.75;;;6.10;;
55913;SDS011;58179;48.776;9.124;2023-06-22T10:47:41;13.38;;;6.88;;
55913;SDS011;58179;48.776;9.124;2023-06-22T10:50:08;7.68;;;5.38;;
55913;SDS011;58179;48.776;9.124;2023-06-22T10:52:35;8.65;;;5.07;;
55913;SDS011;58179;48.776;9.124;2023-06-22T10:55:03;12.43;;;6.00;;
55913;SDS011;58179;48.776;9.124;2023-06-22T10:57:30;9.15;;;4.70;;
55913;SDS011;58179;48.776;9.124;2023-06-22T10:59:56;8.38;;;5.18;;
55913;SDS011;58179;48.776;9.124;2023-06-22T11:02:23;5.43;;;4.22;;
55913;SDS011;58179;48.776;9.124;2023-06-22T11:04:49;8.05;;;4.70;;
55913;SDS011;58179;48.776;9.124;2023-06-22T11:07:16;6.22;;;4.60;;
55913;SDS011;58179;48.776;9.124;2023-06-22T11:09:42;10.13;;;4.93;;
55913;SDS011;58179;48.776;9.124;2023-06-22T11:12:10;5.45;;;4.03;;
55913;SDS011;58179;48.776;9.124;2023-06-22T11:14:38;11.85;;;5.30;;
55913;SDS011;58179;48.776;9.124;2023-06-22T11:17:04;10.95;;;5.82;;
55913;SDS011;58179;48.776;9.124;2023-06-22T11:19:30;9.95;;;5.03;;
55913;SDS011;58179;48.776;9.124;2023-06-22T11:21:57;14.00;;;6.45;;
55913;SDS011;58179;48.776;9.124;2023-06-22T11:24:23;10.13;;;5.38;;
55913;SDS011;58179;48.776;9.124;2023-06-22T11:26:49;8.40;;;5.55;;
55913;SDS011;58179;48.776;9.124;2023-06-22T11:29:17;7.20;;;4.57;;
55913;SDS011;58179;48.776;9.124;2023-06-22T11:31:43;7.90;;;4.93;;
55913;SDS011;58179;48.776;9.124;2023-06-22T11:34:09;7.70;;;4.30;;
55913;SDS011;58179;48.776;9.124;2023-06-22T11:36:36;9.95;;;5.40;;
55913;SDS011;58179;48.776;9.124;2023-06-22T11:39:02;12.88;;;5.88;;
55913;SDS011;58179;48.776;9.124;2023-06-22T11:41:28;10.70;;;5.85;;
55913;SDS011;58179;48.776;9.124;2023-06-22T11:43:54;12.63;;;4.80;;
55913;SDS011;58179;48.776;9.124;2023-06-22T11:46:22;6.40;;;4.60;;
55913;SDS011;58179;48.776;9.124;2023-06-22T11:48:48;10.45;;;5.72;;
55913;SDS011;58179;48.776;9.124;2023-06-22T11:51:14;8.48;;;5.07;;
55913;SDS011;58179;48.776;9.124;2023-06-22T11:53:41;6.28;;;4.53;;
55913;SDS011;58179;48.776;9.124;2023-06-22T11:56:07;6.25;;;3.92;;
55913;SDS011;58179;48.776;9.124;2023-06-22T11:58:33;5.90;;;4.35;;
55913;SDS011;58179;48.776;9.124;2023-06-22T12:00:59;12.23;;;6.60;;
55913;SDS011;58179;48.776;9.124;2023-06-22T12:03:27;14.65;;;6.30;;
55913;SDS011;58179;48.776;9.124;2023-06-22T12:05:54;13.63;;;6.18;;
55913;SDS011;58179;48.776;9.124;2023-06-22T12:08:20;10.55;;;6.10;;
55913;SDS011;58179;48.776;9.124;2023-06-22T12:10:46;8.18;;;5.55;;
55913;SDS011;58179;48.776;9.124;2023-06-22T12:13:14;18.13;;;7.45;;
55913;SDS011;58179;48.776;9.124;2023-06-22T12:15:41;17.65;;;7.10;;
55913;SDS011;58179;48.776;9.124;2023-06-22T12:18:07;10.87;;;5.97;;
55913;SDS011;58179;48.776;9.124;2023-06-22T12:20:35;9.55;;;5.43;;
55913;SDS011;58179;48.776;9.124;2023-06-22T12:23:02;6.28;;;5.10;;
55913;SDS011;58179;48.776;9.124;2023-06-22T12:25:28;6.70;;;4.40;;
55913;SDS011;58179;48.776;9.124;2023-06-22T12:27:54;6.90;;;4.72;;
55913;SDS011;58179;48.776;9.124;2023-06-22T12:30:20;7.68;;;4.28;;
55913;SDS011;58179;48.776;9.124;2023-06-22T12:32:47;12.98;;;5.82;;
55913;SDS011;58179;48.776;9.124;2023-06-22T12:35:14;9.15;;;5.80;;
55913;SDS011;58179;48.776;9.124;2023-06-22T12:37:42;6.30;;;4.70;;
55913;SDS011;58179;48.776;9.124;2023-06-22T12:40:09;11.63;;;6.05;;
55913;SDS011;58179;48.776;9.124;2023-06-22T12:42:37;26.20;;;8.32;;
55913;SDS011;58179;48.776;9.124;2023-06-22T12:45:04;14.07;;;6.57;;
55913;SDS011;58179;48.776;9.124;2023-06-22T12:47:31;12.63;;;6.63;;
55913;SDS011;58179;48.776;9.124;2023-06-22T12:49:57;7.38;;;5.60;;
55913;SDS011;58179;48.776;9.124;2023-06-22T12:52:23;7.65;;;5.20;;
55913;SDS011;58179;48.776;9.124;2023-06-22T12:54:51;6.80;;;5.15;;
55913;SDS011;58179;48.776;9.124;2023-06-22T12:57:17;11.95;;;6.05;;
55913;SDS011;58179;48.776;9.124;2023-06-22T12:59:44;14.07;;;6.90;;
55913;SDS011;58179;48.776;9.124;2023-06-22T13:02:11;10.70;;;6.07;;
55913;SDS011;58179;48.776;9.124;2023-06-22T13:04:38;8.68;;;5.13;;
55913;SDS011;58179;48.776;9.124;2023-06-22T13:07:05;8.18;;;6.10;;
55913;SDS011;58179;48.776;9.124;2023-06-22T13:09:31;9.15;;;5.43;;
55913;SDS011;58179;48.776;9.124;2023-06-22T13:12:01;6.32;;;4.68;;
55913;SDS011;58179;48.776;9.124;2023-06-22T13:14:27;9.43;;;6.20;;
55913;SDS011;58179;48.776;9.124;2023-06-22T13:16:53;14.25;;;7.25;;
55913;SDS011;58179;48.776;9.124;2023-06-22T13:19:19;11.23;;;6.35;;
55913;SDS011;58179;48.776;9.124;2023-06-22T13:21:46;14.40;;;7.55;;
55913;SDS011;58179;48.776;9.124;2023-06-22T13:24:12;11.88;;;6.68;;
55913;SDS011;58179;48.776;9.124;2023-06-22T13:26:38;15.25;;;6.10;;
55913;SDS011;58179;48.776;9.124;2023-06-22T13:29:06;10.43;;;5.90;;
55913;SDS011;58179;48.776;9.124;2023-06-22T13:31:32;9.07;;;5.50;;
55913;SDS011;58179;48.776;9.124;2023-06-22T13:33:58;11.15;;;5.57;;
55913;SDS011;58179;48.776;9.124;2023-06-22T13:36:24;9.63;;;5.40;;
55913;SDS011;58179;48.776;9.124;2023-06-22T13:38:51;7.25;;;5.72;;
55913;SDS011;58179;48.776;9.124;2023-06-22T13:41:17;8.85;;;5.95;;
55913;SDS011;58179;48.776;9.124;2023-06-22T13:43:43;12.70;;;5.75;;
55913;SDS011;58179;48.776;9.124;2023-06-22T13:46:11;19.58;;;7.25;;
55913;SDS011;58179;48.776;9.124;2023-06-22T13:48:37;13.52;;;6.95;;
55913;SDS011;58179;48.776;9.124;2023-06-22T13:51:03;16.57;;;7.77;;
55913;SDS011;58179;48.776;9.124;2023-06-22T13:53:29;12.57;;;6.40;;
55913;SDS011;58179;48.776;9.124;2023-06-22T13:55:56;9.98;;;5.78;;
55913;SDS011;58179;48.776;9.124;2023-06-22T13:58:22;13.35;;;6.93;;
55913;SDS011;58179;48.776;9.124;2023-06-22T14:00:49;9.25;;;5.22;;
55913;SDS011;58179;48.776;9.124;2023-06-22T14:03:16;9.00;;;4.95;;
55913;SDS011;58179;48.776;9.124;2023-06-22T14:05:42;14.63;;;7.10;;
55913;SDS011;58179;48.776;9.124;2023-06-22T14:08:09;15.68;;;6.95;;
55913;SDS011;58179;48.776;9.124;2023-06-22T14:10:35;11.27;;;5.95;;
55913;SDS011;58179;48.776;9.124;2023-06-22T14:13:02;11.50;;;6.10;;
55913;SDS011;58179;48.776;9.124;2023-06-22T14:15:30;16.98;;;6.30;;
55913;SDS011;58179;48.776;9.124;2023-06-22T14:17:57;14.55;;;5.85;;
55913;SDS011;58179;48.776;9.124;2023-06-22T14:20:24;9.27;;;5.57;;
55913;SDS011;58179;48.776;9.124;2023-06-22T14:22:51;10.40;;;5.63;;
55913;SDS011;58179;48.776;9.124;2023-06-22T14:25:17;8.68;;;4.97;;
55913;SDS011;58179;48.776;9.124;2023-06-22T14:27:43;16.08;;;5.80;;
55913;SDS011;58179;48.776;9.124;2023-06-22T14:30:09;16.52;;;6.50;;
55913;SDS011;58179;48.776;9.124;2023-06-22T14:32:36;14.43;;;6.47;;
55913;SDS011;58179;48.776;9.124;2023-06-22T14:35:02;15.10;;;6.45;;